Time;durP1;ratioP1;P1;durP2;ratioP2;P2;SDS_P1;SDS_P2;PMS_P1;PMS_P2;Temp;Humidity;BMP_temperature;BMP_pressure;BME280_temperature;BME280_humidity;BME280_pressure;Samples;Min_cycle;Max_cycle;Signal;HPM_P1;HPM_P2
2022/01/03 00:00:17;;;;;;;18.73;2.60;;;11.00;96.50;;;;;;5114170;28;20035;-80
2022/01/03 00:02:44;;;;;;;26.73;4.13;;;11.00;96.50;;;;;;5114250;28;20024;-77
2022/01/03 00:05:10;;;;;;;21.30;2.83;;;11.00;96.50;;;;;;5097199;28;20408;-77
2022/01/03 00:07:41;;;;;;;17.92;2.92;;;11.00;96.50;;;;;;5097215;28;20038;-75
2022/01/03 00:10:09;;;;;;;27.33;3.57;;;11.00;96.50;;;;;;5114248;28;20054;-84
2022/01/03 00:12:35;;;;;;;25.73;3.72;;;11.00;96.50;;;;;;5114006;28;20023;-75
2022/01/03 00:15:02;;;;;;;26.87;3.87;;;11.00;96.50;;;;;;5080527;28;20044;-80
2022/01/03 00:17:28;;;;;;;28.35;3.17;;;11.00;96.60;;;;;;5115739;28;20444;-81
2022/01/03 00:19:54;;;;;;;21.13;2.97;;;11.00;96.50;;;;;;5112925;28;20027;-75
2022/01/03 00:22:22;;;;;;;32.50;3.95;;;11.00;96.60;;;;;;5114298;28;20054;-83
2022/01/03 00:25:05;;;;;;;32.77;3.87;;;11.00;96.60;;;;;;5113967;28;20031;-79
2022/01/03 00:27:51;;;;;;;25.17;4.20;;;11.00;96.60;;;;;;5114997;28;20106;-75
2022/01/03 00:30:19;;;;;;;26.02;3.42;;;11.00;96.60;;;;;;5115267;28;20028;-75
2022/01/03 00:32:48;;;;;;;26.08;4.95;;;11.00;96.60;;;;;;5115373;28;20039;-75
2022/01/03 00:35:16;;;;;;;27.80;3.30;;;11.00;96.50;;;;;;5115123;28;20028;-78
2022/01/03 00:37:44;;;;;;;25.45;3.53;;;11.00;96.60;;;;;;5114842;28;20070;-83
2022/01/03 00:40:10;;;;;;;23.42;3.78;;;11.00;96.60;;;;;;5113443;28;20384;-75
2022/01/03 00:42:36;;;;;;;24.87;3.37;;;11.00;96.60;;;;;;5113177;28;20058;-75
2022/01/03 00:45:03;;;;;;;33.10;3.83;;;11.00;96.60;;;;;;5114555;28;20032;-77
2022/01/03 00:47:33;;;;;;;25.20;4.30;;;11.00;96.50;;;;;;5114007;28;20105;-82
2022/01/03 00:50:04;;;;;;;25.13;3.60;;;10.90;96.40;;;;;;5113933;28;20123;-79
2022/01/03 00:52:30;;;;;;;31.10;4.93;;;11.00;96.50;;;;;;5114701;28;20379;-75
2022/01/03 00:54:55;;;;;;;28.33;4.43;;;11.00;96.50;;;;;;5114502;28;20035;-75
2022/01/03 00:57:50;;;;;;;19.23;3.47;;;11.00;96.50;;;;;;5114723;28;20355;-84
2022/01/03 01:00:16;;;;;;;24.75;3.10;;;11.00;96.50;;;;;;5113210;28;20039;-75
2022/01/03 01:02:52;;;;;;;31.88;4.88;;;11.00;96.50;;;;;;5113536;28;20063;-75
2022/01/03 01:05:20;;;;;;;29.05;5.35;;;11.00;96.50;;;;;;5113106;28;20027;-75
2022/01/03 01:07:47;;;;;;;34.20;4.47;;;11.00;96.50;;;;;;5113098;28;20035;-76
2022/01/03 01:10:13;;;;;;;28.40;3.38;;;11.00;96.60;;;;;;5114481;28;20114;-75
2022/01/03 01:12:40;;;;;;;33.20;5.10;;;11.00;96.80;;;;;;5114522;28;20134;-77
2022/01/03 01:15:06;;;;;;;24.93;3.70;;;11.00;96.40;;;;;;5096654;28;20198;-77
2022/01/03 01:17:33;;;;;;;30.48;3.90;;;11.00;96.50;;;;;;5113974;28;20519;-77
2022/01/03 01:19:59;;;;;;;24.98;4.18;;;11.00;96.30;;;;;;5095873;28;20375;-77
2022/01/03 01:22:25;;;;;;;26.90;3.57;;;11.00;96.30;;;;;;5096214;28;20020;-75
2022/01/03 01:27:46;;;;;;;24.17;3.60;;;11.00;96.30;;;;;;5095804;28;20055;-78
2022/01/03 01:27:48;;;;;;;35.73;4.60;;;10.90;96.20;;;;;;5095180;28;20032;-76
2022/01/03 01:30:18;;;;;;;22.23;3.80;;;10.90;96.20;;;;;;5114324;28;20027;-78
2022/01/03 01:33:08;;;;;;;26.37;3.47;;;10.90;96.20;;;;;;5113904;28;20028;-77
2022/01/03 01:35:50;;;;;;;22.07;3.70;;;10.90;96.10;;;;;;5112790;28;20032;-77
2022/01/03 01:38:22;;;;;;;34.20;4.37;;;10.90;96.00;;;;;;5113957;28;20097;-78
2022/01/03 01:40:54;;;;;;;28.07;4.37;;;10.80;96.00;;;;;;5113823;28;20020;-78
2022/01/03 01:43:37;;;;;;;22.10;3.10;;;10.80;96.00;;;;;;5114147;28;20725;-81
2022/01/03 01:46:07;;;;;;;26.70;3.57;;;10.80;96.00;;;;;;5112584;28;20118;-80
2022/01/03 01:48:34;;;;;;;36.13;4.40;;;10.90;96.10;;;;;;5112477;28;20483;-76
2022/01/03 01:51:01;;;;;;;26.40;3.47;;;10.80;96.10;;;;;;5112267;28;20027;-75
2022/01/03 01:53:27;;;;;;;24.80;4.87;;;10.80;96.00;;;;;;5112365;28;20142;-79
2022/01/03 01:55:55;;;;;;;32.63;3.63;;;10.80;96.00;;;;;;5113762;28;20027;-82
2022/01/03 01:58:29;;;;;;;24.03;3.30;;;10.80;95.90;;;;;;5095964;28;20053;-82
2022/01/03 02:01:21;;;;;;;27.88;4.25;;;10.90;96.00;;;;;;5114002;28;20019;-75
2022/01/03 02:03:57;;;;;;;24.77;3.83;;;10.90;96.10;;;;;;5111381;28;20044;-77
2022/01/03 02:06:43;;;;;;;23.53;3.73;;;10.90;96.00;;;;;;5113528;28;20050;-76
2022/01/03 02:09:17;;;;;;;26.33;3.77;;;10.90;96.00;;;;;;5113580;28;20036;-76
2022/01/03 02:11:55;;;;;;;28.50;3.87;;;10.90;96.10;;;;;;5112446;28;20052;-75
2022/01/03 02:14:22;;;;;;;24.67;3.83;;;10.90;96.10;;;;;;5113755;28;20063;-76
2022/01/03 02:16:49;;;;;;;27.45;4.07;;;10.90;96.20;;;;;;5113625;28;20122;-76
2022/01/03 02:19:15;;;;;;;26.50;3.63;;;10.80;96.20;;;;;;5112424;28;20026;-73
2022/01/03 02:21:41;;;;;;;22.75;3.45;;;10.80;96.10;;;;;;5112147;28;20058;-75
2022/01/03 02:24:07;;;;;;;27.63;3.97;;;10.90;96.20;;;;;;5095678;28;20027;-76
2022/01/03 02:26:33;;;;;;;28.03;4.03;;;10.80;96.20;;;;;;5113586;28;20039;-75
2022/01/03 02:28:59;;;;;;;25.30;3.50;;;10.80;96.20;;;;;;5112361;28;20090;-75
2022/01/03 02:31:25;;;;;;;27.93;5.30;;;10.80;96.30;;;;;;5095369;28;20051;-75
2022/01/03 02:33:52;;;;;;;29.30;4.23;;;10.80;96.30;;;;;;5112127;28;20075;-76
2022/01/03 02:36:18;;;;;;;23.00;4.07;;;10.80;96.40;;;;;;5113644;28;20024;-74
2022/01/03 02:38:45;;;;;;;28.53;3.80;;;10.80;96.40;;;;;;5113328;28;20387;-76
2022/01/03 02:41:11;;;;;;;27.17;3.90;;;10.80;96.70;;;;;;5111995;28;20066;-74
2022/01/03 02:43:37;;;;;;;21.77;3.30;;;10.80;96.50;;;;;;5115248;28;20551;-74
2022/01/03 02:46:02;;;;;;;22.53;3.23;;;10.80;96.50;;;;;;5098699;28;20036;-77
2022/01/03 02:48:28;;;;;;;24.57;3.50;;;10.80;96.50;;;;;;5115821;28;20036;-75
2022/01/03 02:50:55;;;;;;;26.23;3.67;;;10.80;96.50;;;;;;5115653;28;20023;-75
2022/01/03 02:53:21;;;;;;;30.53;3.97;;;10.70;96.50;;;;;;5116908;28;20058;-75
2022/01/03 02:55:48;;;;;;;26.33;3.67;;;10.70;96.40;;;;;;5115688;28;20024;-74
2022/01/03 02:58:14;;;;;;;24.63;3.87;;;10.70;96.40;;;;;;5116866;28;20471;-74
2022/01/03 03:00:48;;;;;;;25.70;3.70;;;10.70;96.50;;;;;;5116529;28;20033;-74
2022/01/03 03:03:19;;;;;;;24.45;4.03;;;10.70;96.40;;;;;;5116820;28;20098;-77
2022/01/03 03:05:44;;;;;;;28.63;3.80;;;10.70;96.60;;;;;;5116671;28;20011;-75
2022/01/03 03:08:12;;;;;;;25.30;4.07;;;10.70;96.40;;;;;;5116804;28;20502;-75
2022/01/03 03:10:38;;;;;;;25.73;3.03;;;10.70;96.40;;;;;;5115357;28;20460;-74
2022/01/03 03:13:04;;;;;;;25.13;3.67;;;10.70;96.50;;;;;;5098177;28;20050;-75
2022/01/03 03:15:30;;;;;;;33.53;3.77;;;10.70;96.50;;;;;;5116463;28;20027;-74
2022/01/03 03:17:56;;;;;;;26.10;3.50;;;10.60;96.50;;;;;;5116360;28;20030;-73
2022/01/03 03:20:28;;;;;;;25.80;3.37;;;10.70;96.50;;;;;;5115438;28;20023;-75
2022/01/03 03:22:55;;;;;;;22.58;3.63;;;10.70;96.50;;;;;;5116260;28;20031;-76
2022/01/03 03:25:22;;;;;;;20.00;3.20;;;10.60;96.40;;;;;;5114913;28;20054;-75
2022/01/03 03:27:51;;;;;;;26.27;3.63;;;10.60;96.50;;;;;;5114994;28;20023;-75
2022/01/03 03:30:37;;;;;;;23.83;3.87;;;10.60;96.50;;;;;;5116497;28;20490;-83
2022/01/03 03:33:09;;;;;;;25.03;3.73;;;10.60;96.50;;;;;;5114664;28;20023;-75
2022/01/03 03:35:35;;;;;;;23.77;2.80;;;10.70;96.50;;;;;;5114634;28;20027;-77
2022/01/03 03:38:01;;;;;;;27.37;3.37;;;10.70;96.50;;;;;;5116203;28;20023;-75
2022/01/03 03:40:27;;;;;;;30.37;4.07;;;10.60;96.40;;;;;;5114788;28;20049;-80
2022/01/03 03:42:53;;;;;;;26.57;3.67;;;10.60;96.50;;;;;;5115756;28;20127;-77
2022/01/03 03:45:19;;;;;;;26.67;4.77;;;10.60;96.50;;;;;;5114944;28;20035;-77
2022/01/03 03:47:45;;;;;;;29.73;4.37;;;10.60;96.60;;;;;;5116027;28;20038;-82
2022/01/03 03:50:11;;;;;;;21.13;3.43;;;10.60;96.50;;;;;;5097575;28;20388;-75
2022/01/03 03:52:37;;;;;;;22.97;3.50;;;10.60;96.50;;;;;;5114229;28;20383;-75
2022/01/03 03:55:05;;;;;;;27.43;4.40;;;10.60;96.50;;;;;;5114334;28;20046;-78
2022/01/03 03:57:30;;;;;;;26.67;3.37;;;10.60;96.60;;;;;;5115601;28;20023;-75
2022/01/03 03:59:56;;;;;;;28.50;4.17;;;10.60;96.60;;;;;;5097502;28;20452;-76
2022/01/03 04:02:21;;;;;;;25.10;2.95;;;10.60;96.60;;;;;;5097300;28;20043;-76
2022/01/03 04:04:47;;;;;;;29.73;4.13;;;10.60;96.60;;;;;;5115472;28;20058;-76
2022/01/03 04:07:13;;;;;;;33.90;5.00;;;10.50;96.50;;;;;;5114472;28;20023;-76
2022/01/03 04:09:38;;;;;;;27.77;4.87;;;10.50;96.50;;;;;;5114437;28;20536;-75
2022/01/03 04:12:05;;;;;;;20.57;4.27;;;10.50;96.50;;;;;;5097198;28;20059;-76
2022/01/03 04:14:31;;;;;;;31.20;4.87;;;10.50;96.50;;;;;;5115240;28;20387;-80
2022/01/03 04:16:56;;;;;;;26.53;4.43;;;10.60;96.50;;;;;;5115502;28;20027;-76
2022/01/03 04:19:22;;;;;;;29.33;4.73;;;10.60;96.50;;;;;;5096772;28;20031;-74
2022/01/03 04:21:48;;;;;;;26.53;3.50;;;10.60;96.80;;;;;;5113946;28;20489;-76
2022/01/03 04:24:13;;;;;;;30.17;5.70;;;10.60;96.50;;;;;;5115058;28;20476;-77
2022/01/03 04:26:40;;;;;;;29.87;5.10;;;10.60;96.50;;;;;;5113921;28;20045;-75
2022/01/03 04:29:07;;;;;;;24.57;4.47;;;10.60;96.50;;;;;;5096629;28;20051;-75
2022/01/03 04:31:33;;;;;;;30.00;4.90;;;10.60;96.80;;;;;;5113803;28;20035;-75
2022/01/03 04:33:59;;;;;;;33.10;5.37;;;10.60;96.60;;;;;;5113459;28;20035;-75
2022/01/03 04:36:26;;;;;;;25.10;4.60;;;10.60;96.60;;;;;;5114698;28;20054;-77
2022/01/03 04:38:52;;;;;;;24.33;4.10;;;10.70;96.60;;;;;;5113509;28;20034;-76
2022/01/03 04:41:17;;;;;;;37.93;6.90;;;10.60;96.50;;;;;;5114557;28;20040;-74
2022/01/03 04:43:43;;;;;;;33.83;4.70;;;10.70;96.50;;;;;;5114774;28;20078;-76
2022/01/03 04:46:09;;;;;;;32.43;5.43;;;10.70;96.40;;;;;;5113546;28;20036;-76
2022/01/03 04:48:39;;;;;;;31.87;4.67;;;10.70;96.50;;;;;;5114679;28;20467;-76
2022/01/03 04:51:05;;;;;;;30.57;4.67;;;10.60;96.40;;;;;;5113496;28;20044;-76
2022/01/03 04:53:35;;;;;;;30.37;5.13;;;10.60;96.40;;;;;;5115081;28;20177;-77
2022/01/03 04:56:01;;;;;;;26.13;5.00;;;10.70;96.70;;;;;;5113257;28;20024;-76
2022/01/03 04:58:27;;;;;;;24.03;4.33;;;10.60;96.30;;;;;;5114384;28;20101;-79
2022/01/03 05:00:52;;;;;;;37.83;5.80;;;10.70;96.30;;;;;;5095940;28;20027;-75
2022/01/03 05:03:18;;;;;;;31.47;4.83;;;10.70;96.30;;;;;;5113289;28;20035;-76
2022/01/03 05:05:44;;;;;;;31.63;4.22;;;10.70;96.30;;;;;;5113720;28;20027;-76
2022/01/03 05:08:10;;;;;;;30.40;5.93;;;10.70;96.20;;;;;;5110146;28;20056;-79
2022/01/03 05:10:36;;;;;;;26.93;5.23;;;10.70;96.20;;;;;;5093086;28;20051;-75
2022/01/03 05:13:02;;;;;;;29.17;5.00;;;10.70;96.20;;;;;;5076543;28;20047;-76
2022/01/03 05:15:27;;;;;;;30.30;5.07;;;10.70;96.20;;;;;;5075334;28;20026;-75
2022/01/03 05:17:53;;;;;;;29.97;4.07;;;10.70;96.20;;;;;;5092626;28;20103;-76
2022/01/03 05:20:19;;;;;;;27.33;4.30;;;10.70;96.30;;;;;;5093721;28;20430;-76
2022/01/03 05:22:45;;;;;;;26.23;3.97;;;10.70;96.30;;;;;;5093286;28;20032;-75
2022/01/03 05:25:11;;;;;;;24.23;4.73;;;10.70;96.40;;;;;;5075641;28;20042;-75
2022/01/03 05:27:40;;;;;;;33.57;5.20;;;10.70;96.40;;;;;;5075519;28;20119;-75
2022/01/03 05:30:06;;;;;;;21.83;3.67;;;10.70;96.40;;;;;;5092455;28;20024;-75
2022/01/03 05:32:32;;;;;;;27.53;4.00;;;10.70;96.50;;;;;;5076116;28;20106;-75
2022/01/03 05:34:58;;;;;;;36.60;4.00;;;10.70;96.50;;;;;;5092455;28;20028;-75
2022/01/03 05:37:24;;;;;;;26.20;3.37;;;10.70;96.50;;;;;;5093760;28;20025;-75
2022/01/03 05:39:49;;;;;;;36.57;4.50;;;10.70;96.50;;;;;;5092498;28;20024;-75
2022/01/03 05:42:15;;;;;;;31.27;4.63;;;10.70;96.70;;;;;;5092136;28;20040;-76
2022/01/03 05:44:41;;;;;;;26.13;4.97;;;10.70;96.50;;;;;;5091955;28;20040;-75
2022/01/03 05:47:07;;;;;;;29.33;5.60;;;10.70;96.40;;;;;;5092024;28;20400;-75
2022/01/03 05:49:33;;;;;;;25.27;3.90;;;10.80;96.50;;;;;;5092509;28;20032;-75
2022/01/03 05:51:59;;;;;;;24.67;3.77;;;10.70;96.40;;;;;;5093555;28;20039;-76
2022/01/03 05:54:25;;;;;;;20.17;3.27;;;10.80;96.40;;;;;;5093269;28;20392;-75
2022/01/03 05:56:50;;;;;;;24.80;4.25;;;10.70;96.40;;;;;;5093396;28;20078;-75
2022/01/03 05:59:16;;;;;;;30.52;5.03;;;10.70;96.30;;;;;;5093339;28;20032;-79
2022/01/03 06:01:42;;;;;;;18.67;3.30;;;10.60;96.30;;;;;;5075392;28;20549;-76
2022/01/03 06:04:22;;;;;;;30.67;3.92;;;10.70;96.40;;;;;;5091904;28;20032;-79
2022/01/03 06:07:02;;;;;;;27.33;4.97;;;10.70;96.40;;;;;;5108886;28;20090;-75
2022/01/03 06:09:27;;;;;;;30.42;4.50;;;10.70;96.40;;;;;;5092113;28;20127;-75
2022/01/03 06:11:54;;;;;;;25.77;4.20;;;10.80;96.40;;;;;;5093310;28;20060;-76
2022/01/03 06:14:21;;;;;;;28.43;4.80;;;10.70;96.30;;;;;;5078668;28;20490;-76
2022/01/03 06:16:48;;;;;;;31.77;4.68;;;10.70;96.30;;;;;;5109538;28;20429;-76
2022/01/03 06:19:14;;;;;;;32.47;4.20;;;10.70;96.60;;;;;;5114923;28;20046;-75
2022/01/03 06:21:41;;;;;;;27.73;4.13;;;10.60;96.10;;;;;;5117543;28;20016;-76
2022/01/03 06:24:08;;;;;;;25.73;3.78;;;10.70;96.10;;;;;;5115875;28;20059;-75
2022/01/03 06:26:33;;;;;;;30.07;4.37;;;10.70;96.10;;;;;;5116213;28;20456;-75
2022/01/03 06:28:59;;;;;;;29.00;3.80;;;10.70;96.00;;;;;;5115899;28;20023;-76
2022/01/03 06:31:25;;;;;;;27.30;3.93;;;10.80;96.10;;;;;;5115843;28;20034;-77
2022/01/03 06:33:50;;;;;;;28.35;4.15;;;10.70;96.00;;;;;;5117131;28;20032;-76
2022/01/03 06:36:16;;;;;;;27.67;4.43;;;10.70;96.00;;;;;;5116041;28;20077;-77
2022/01/03 06:38:42;;;;;;;22.30;4.30;;;10.70;96.00;;;;;;5117212;28;20055;-76
2022/01/03 06:41:07;;;;;;;24.23;3.90;;;10.70;95.80;;;;;;5116632;28;20016;-76
2022/01/03 06:43:33;;;;;;;22.73;3.50;;;10.70;95.90;;;;;;5116615;28;20027;-75
2022/01/03 06:45:59;;;;;;;26.35;3.97;;;10.70;95.90;;;;;;5117037;28;20040;-77
2022/01/03 06:48:24;;;;;;;29.57;4.50;;;10.70;95.70;;;;;;5116749;28;20043;-75
2022/01/03 06:50:50;;;;;;;28.08;4.15;;;10.80;95.70;;;;;;5115674;28;20054;-77
2022/01/03 06:53:16;;;;;;;36.03;6.00;;;10.80;95.60;;;;;;5084423;28;20521;-76
2022/01/03 06:55:42;;;;;;;25.60;5.18;;;10.80;95.60;;;;;;5115693;28;20387;-75
2022/01/03 06:58:08;;;;;;;27.03;3.47;;;10.80;95.60;;;;;;5115549;28;20099;-75
2022/01/03 07:00:33;;;;;;;22.97;3.63;;;10.80;95.60;;;;;;5116821;28;20043;-75
2022/01/03 07:02:59;;;;;;;25.00;4.00;;;10.80;95.60;;;;;;5091836;28;20051;-76
2022/01/03 07:05:25;;;;;;;26.63;3.67;;;10.80;95.50;;;;;;5097972;28;20117;-75
2022/01/03 07:07:50;;;;;;;20.10;4.60;;;10.80;95.40;;;;;;5116404;28;20032;-74
2022/01/03 07:10:18;;;;;;;21.13;3.60;;;10.80;95.40;;;;;;5097873;28;20383;-75
2022/01/03 07:12:44;;;;;;;23.80;3.60;;;10.90;95.30;;;;;;5098290;28;20020;-76
2022/01/03 07:20:39;;;;;;;25.90;3.65;;;10.90;95.20;;;;;;5100743;28;20066;-74
2022/01/03 07:23:04;;;;;;;19.15;2.72;;;10.90;95.30;;;;;;5115195;28;20024;-75
2022/01/03 07:25:31;;;;;;;21.00;3.10;;;10.90;95.30;;;;;;5116408;28;20438;-74
2022/01/03 07:27:56;;;;;;;26.92;4.25;;;10.90;95.40;;;;;;5115063;28;20038;-77
2022/01/03 07:30:22;;;;;;;21.27;3.10;;;10.90;95.30;;;;;;5097048;28;20027;-74
2022/01/03 07:32:47;;;;;;;24.67;3.50;;;10.90;95.40;;;;;;5115874;28;20112;-75
2022/01/03 07:35:16;;;;;;;20.10;3.00;;;10.90;95.40;;;;;;5115798;28;20032;-74
2022/01/03 07:37:42;;;;;;;18.77;3.72;;;10.90;95.50;;;;;;5114621;28;20028;-73
2022/01/03 07:40:08;;;;;;;22.90;3.17;;;10.80;95.70;;;;;;5115547;28;20387;-74
2022/01/03 07:42:34;;;;;;;23.93;3.60;;;10.90;95.50;;;;;;5115508;28;20031;-73
2022/01/03 07:44:59;;;;;;;25.05;4.38;;;10.80;95.50;;;;;;5114306;28;20482;-75
2022/01/03 07:47:25;;;;;;;24.93;3.77;;;10.90;95.40;;;;;;5114848;28;20118;-74
2022/01/03 07:49:50;;;;;;;27.40;4.90;;;10.90;95.50;;;;;;5114855;28;20043;-73
2022/01/03 07:52:16;;;;;;;28.07;4.17;;;10.90;95.50;;;;;;5114100;28;20069;-73
2022/01/03 07:54:42;;;;;;;26.50;4.00;;;10.90;95.50;;;;;;5113648;28;20047;-73
2022/01/03 07:57:07;;;;;;;22.83;4.27;;;10.90;95.50;;;;;;5115340;28;20024;-73
2022/01/03 07:59:33;;;;;;;24.77;4.13;;;10.80;95.50;;;;;;5115709;28;20027;-74
2022/01/03 08:01:59;;;;;;;22.60;3.70;;;10.90;95.50;;;;;;5114109;28;20072;-75
2022/01/03 08:04:25;;;;;;;27.58;3.35;;;10.90;95.40;;;;;;5113540;28;20024;-73
2022/01/03 08:06:51;;;;;;;19.10;3.37;;;10.80;95.50;;;;;;5114801;28;20026;-74
2022/01/03 08:09:17;;;;;;;33.60;4.43;;;10.90;95.40;;;;;;5112150;28;20360;-74
2022/01/03 08:11:42;;;;;;;25.73;4.50;;;10.80;95.40;;;;;;5113599;28;20479;-74
2022/01/03 08:14:08;;;;;;;18.67;3.67;;;10.80;95.40;;;;;;5113635;28;20053;-76
2022/01/03 08:16:34;;;;;;;22.73;4.33;;;10.90;95.30;;;;;;5092852;28;20452;-74
2022/01/03 08:19:00;;;;;;;18.57;3.97;;;10.90;95.30;;;;;;5076858;28;20024;-74
2022/01/03 08:21:25;;;;;;;21.23;4.13;;;11.00;95.30;;;;;;5109073;28;20063;-74
2022/01/03 08:23:51;;;;;;;24.70;4.33;;;10.90;95.20;;;;;;5114029;28;20032;-76
2022/01/03 08:26:17;;;;;;;23.85;3.30;;;10.90;95.00;;;;;;5113562;28;20024;-73
2022/01/03 08:28:43;;;;;;;26.90;3.43;;;10.90;95.00;;;;;;5114589;28;20387;-74
2022/01/03 08:31:09;;;;;;;22.10;3.53;;;10.90;94.80;;;;;;5114772;28;20020;-74
2022/01/03 08:33:34;;;;;;;21.67;3.65;;;10.90;94.80;;;;;;5114768;28;20031;-75
2022/01/03 08:36:02;;;;;;;26.13;3.40;;;10.90;94.80;;;;;;5114381;28;20031;-76
2022/01/03 08:38:29;;;;;;;24.23;3.80;;;10.90;94.80;;;;;;5112653;28;20158;-74
2022/01/03 08:40:54;;;;;;;12.70;2.88;;;10.90;94.80;;;;;;5113715;28;20422;-73
2022/01/03 08:43:20;;;;;;;23.80;3.77;;;10.90;94.70;;;;;;5113331;28;20065;-74
2022/01/03 08:45:46;;;;;;;19.93;3.47;;;11.00;94.70;;;;;;5113060;28;20110;-75
2022/01/03 08:48:12;;;;;;;22.92;3.63;;;10.90;94.80;;;;;;5113209;28;20023;-74
2022/01/03 08:50:37;;;;;;;21.03;3.43;;;10.90;94.50;;;;;;5096172;28;20085;-74
2022/01/03 08:53:04;;;;;;;23.07;3.57;;;11.00;94.60;;;;;;5113381;28;20031;-74
2022/01/03 08:55:30;;;;;;;28.50;4.82;;;11.00;94.60;;;;;;5114768;28;20031;-75
2022/01/03 08:57:56;;;;;;;20.63;3.13;;;11.00;94.50;;;;;;5113280;28;20016;-75
2022/01/03 09:00:22;;;;;;;21.77;3.03;;;11.00;94.50;;;;;;5113178;28;20047;-76
2022/01/03 09:02:47;;;;;;;19.93;3.00;;;11.00;94.30;;;;;;5113198;28;20028;-75
2022/01/03 09:05:13;;;;;;;20.87;3.03;;;11.00;94.40;;;;;;5114298;28;20027;-75
2022/01/03 09:07:39;;;;;;;17.47;3.33;;;11.00;94.30;;;;;;5114756;28;20042;-74
2022/01/03 09:10:06;;;;;;;21.97;3.43;;;11.00;94.40;;;;;;5114605;28;20110;-76
2022/01/03 09:12:31;;;;;;;28.05;4.50;;;11.00;94.50;;;;;;5113299;28;20379;-74
2022/01/03 09:14:58;;;;;;;21.45;3.72;;;11.00;94.40;;;;;;5112966;28;20127;-74
2022/01/03 09:17:24;;;;;;;19.23;2.90;;;11.00;94.30;;;;;;5096857;28;20038;-75
2022/01/03 09:19:51;;;;;;;31.52;4.28;;;11.00;94.30;;;;;;5113255;28;20055;-76
2022/01/03 09:22:22;;;;;;;24.60;4.03;;;11.00;94.30;;;;;;5112544;28;20118;-74
2022/01/03 09:30:10;;;;;;;19.52;4.03;;;11.00;94.50;;;;;;5109866;28;20070;-74
2022/01/03 09:32:36;;;;;;;24.45;4.10;;;11.00;94.50;;;;;;5113753;28;20099;-73
2022/01/03 09:35:02;;;;;;;22.88;3.47;;;11.10;94.50;;;;;;5113947;28;20115;-75
2022/01/03 09:37:28;;;;;;;22.93;3.73;;;11.00;94.50;;;;;;5113798;28;20031;-74
2022/01/03 09:39:54;;;;;;;19.27;3.35;;;11.10;94.60;;;;;;5078648;28;20517;-75
2022/01/03 09:42:27;;;;;;;20.38;3.08;;;11.10;94.70;;;;;;5095710;28;20047;-73
2022/01/03 09:44:53;;;;;;;19.70;3.45;;;11.10;94.70;;;;;;5114064;28;20042;-75
2022/01/03 09:47:20;;;;;;;21.55;3.35;;;11.10;94.70;;;;;;5111937;28;20684;-74
2022/01/03 09:49:47;;;;;;;23.75;4.07;;;11.10;94.60;;;;;;5107283;28;20036;-74
2022/01/03 09:52:15;;;;;;;26.20;3.72;;;11.00;94.60;;;;;;5080086;28;20036;-75
2022/01/03 09:54:41;;;;;;;24.05;4.28;;;11.00;94.50;;;;;;5096297;28;20499;-74
2022/01/03 09:57:07;;;;;;;25.13;4.03;;;11.00;94.50;;;;;;5082275;28;20118;-73
2022/01/03 09:59:33;;;;;;;26.90;4.33;;;11.00;94.60;;;;;;5116733;28;20051;-74
2022/01/03 10:02:00;;;;;;;27.02;3.95;;;11.00;94.60;;;;;;5116097;28;20028;-74
2022/01/03 10:04:26;;;;;;;28.23;3.83;;;11.00;94.60;;;;;;5116075;28;20032;-74
2022/01/03 10:06:52;;;;;;;21.07;3.60;;;11.00;94.90;;;;;;5117676;28;20039;-75
2022/01/03 10:09:19;;;;;;;20.95;3.45;;;11.00;94.50;;;;;;5116338;28;20032;-75
2022/01/03 10:11:45;;;;;;;34.97;3.70;;;11.00;94.40;;;;;;5116253;28;20019;-75
2022/01/03 10:14:11;;;;;;;20.13;2.83;;;11.00;94.50;;;;;;5116996;28;20051;-73
2022/01/03 10:16:37;;;;;;;24.10;3.97;;;11.00;94.30;;;;;;5117118;28;20038;-75
2022/01/03 10:19:03;;;;;;;19.73;3.77;;;11.00;94.20;;;;;;5096127;28;20028;-77
2022/01/03 10:21:33;;;;;;;28.20;3.83;;;11.00;94.20;;;;;;5088192;28;20028;-74
2022/01/03 10:23:59;;;;;;;24.07;3.07;;;11.10;94.40;;;;;;5116708;28;20531;-75
2022/01/03 10:26:25;;;;;;;24.50;4.17;;;11.00;94.10;;;;;;5116078;28;20111;-74
2022/01/03 10:29:08;;;;;;;18.30;2.70;;;11.10;94.00;;;;;;5098470;28;20027;-74
2022/01/03 10:31:39;;;;;;;24.13;3.63;;;11.10;94.00;;;;;;5096773;28;20028;-75
2022/01/03 10:34:07;;;;;;;25.25;4.78;;;11.10;93.90;;;;;;5113197;28;20020;-75
2022/01/03 10:36:35;;;;;;;16.02;3.80;;;11.10;93.70;;;;;;5115648;28;20019;-75
2022/01/03 10:39:18;;;;;;;23.45;2.92;;;11.20;93.80;;;;;;5116548;28;20480;-74
2022/01/03 10:41:48;;;;;;;16.73;3.33;;;11.30;93.80;;;;;;5109698;28;20078;-77
2022/01/03 10:44:36;;;;;;;26.90;4.28;;;11.40;93.70;;;;;;5117171;28;20024;-78
2022/01/03 10:47:04;;;;;;;24.67;3.05;;;11.60;94.00;;;;;;5116827;28;20349;-73
2022/01/03 10:49:32;;;;;;;19.70;3.45;;;11.80;94.00;;;;;;5117084;28;20012;-74
2022/01/03 10:52:32;;;;;;;18.70;3.65;;;12.00;93.50;;;;;;5115862;28;20417;-75
2022/01/03 10:55:09;;;;;;;21.92;3.38;;;12.20;93.00;;;;;;5072581;28;20047;-74
2022/01/03 10:57:50;;;;;;;23.38;3.78;;;12.30;92.30;;;;;;5115395;28;20023;-75
2022/01/03 11:00:22;;;;;;;21.08;3.05;;;12.40;92.30;;;;;;5116762;28;20019;-74
2022/01/03 11:03:13;;;;;;;20.95;3.72;;;12.60;92.40;;;;;;5115075;28;20578;-74
2022/01/03 11:05:44;;;;;;;22.35;3.85;;;12.70;91.50;;;;;;5106644;28;20012;-75
2022/01/03 11:10:44;;;;;;;19.77;3.20;;;12.80;91.30;;;;;;5116259;28;20047;-75
2022/01/03 11:13:13;;;;;;;23.55;3.85;;;12.70;91.00;;;;;;5115426;28;20019;-75
2022/01/03 11:15:42;;;;;;;24.42;4.13;;;12.60;90.90;;;;;;5116001;28;20360;-76
2022/01/03 11:18:14;;;;;;;23.35;3.70;;;12.50;91.00;;;;;;5116604;28;20099;-78
2022/01/03 11:20:40;;;;;;;21.95;3.65;;;12.40;91.10;;;;;;5114479;28;20016;-75
2022/01/03 11:23:06;;;;;;;20.15;4.65;;;12.30;91.10;;;;;;5116446;28;20063;-76
2022/01/03 11:25:35;;;;;;;28.30;3.97;;;12.30;91.30;;;;;;5115234;28;20074;-76
2022/01/03 11:28:01;;;;;;;20.75;3.00;;;12.30;91.60;;;;;;5116246;28;20092;-79
2022/01/03 11:30:27;;;;;;;23.20;3.55;;;12.40;91.90;;;;;;5116357;28;20502;-76
2022/01/03 11:32:54;;;;;;;21.42;3.97;;;12.50;91.50;;;;;;5116739;28;20153;-76
2022/01/03 11:35:20;;;;;;;21.25;3.72;;;12.60;91.50;;;;;;5114829;28;20055;-76
2022/01/03 11:37:47;;;;;;;21.10;3.00;;;12.70;91.60;;;;;;5098020;28;20047;-76
2022/01/03 11:40:15;;;;;;;22.63;2.85;;;13.00;91.80;;;;;;5097719;28;20486;-76
2022/01/03 11:42:42;;;;;;;17.08;2.80;;;13.20;91.00;;;;;;5115655;28;20032;-75
2022/01/03 11:45:08;;;;;;;37.15;15.73;;;13.30;91.00;;;;;;5115660;28;20051;-76
2022/01/03 11:47:36;;;;;;;21.58;6.10;;;13.20;90.70;;;;;;5114833;28;20028;-76
2022/01/03 11:50:02;;;;;;;22.92;4.05;;;13.20;90.30;;;;;;5115795;28;20028;-76
2022/01/03 11:52:29;;;;;;;21.77;3.65;;;13.10;90.10;;;;;;5115754;28;20584;-75
2022/01/03 11:54:55;;;;;;;17.83;3.38;;;13.10;90.10;;;;;;5097307;28;20114;-75
2022/01/03 11:57:41;;;;;;;26.15;3.30;;;12.90;89.30;;;;;;5115965;28;20026;-75
2022/01/03 12:06:00;;;;;;;26.25;3.10;;;12.50;90.50;;;;;;5114734;28;20073;-75
2022/01/03 12:08:34;;;;;;;28.13;3.85;;;12.40;90.70;;;;;;5115489;28;20466;-75
2022/01/03 12:11:02;;;;;;;19.75;3.05;;;12.40;90.70;;;;;;5115102;28;20027;-74
2022/01/03 12:13:47;;;;;;;23.00;3.80;;;12.40;90.90;;;;;;5114963;28;20024;-75
2022/01/03 12:16:13;;;;;;;26.60;4.15;;;12.40;90.90;;;;;;5114925;28;20464;-75
2022/01/03 12:18:39;;;;;;;17.35;2.38;;;12.40;90.90;;;;;;5113929;28;20053;-75
2022/01/03 12:21:06;;;;;;;18.90;3.00;;;12.40;91.00;;;;;;5115242;28;20015;-76
2022/01/03 12:23:43;;;;;;;19.60;3.08;;;12.50;91.10;;;;;;5115343;28;20337;-76
2022/01/03 12:26:14;;;;;;;23.65;3.40;;;12.40;90.60;;;;;;5113472;28;20110;-76
2022/01/03 12:29:08;;;;;;;16.25;3.10;;;12.40;90.60;;;;;;5114601;28;20024;-75
2022/01/03 12:32:08;;;;;;;19.52;3.03;;;12.20;90.80;;;;;;5113044;28;20028;-75
2022/01/03 12:34:35;;;;;;;18.27;3.45;;;12.10;90.80;;;;;;5113448;28;20110;-74
2022/01/03 12:37:20;;;;;;;18.48;3.63;;;12.10;91.00;;;;;;5114937;28;20020;-75
2022/01/03 12:40:04;;;;;;;26.75;4.07;;;12.00;91.20;;;;;;5114610;28;20024;-76
2022/01/03 12:42:48;;;;;;;17.38;3.33;;;11.90;91.30;;;;;;5113178;28;20040;-75
2022/01/03 12:45:16;;;;;;;18.42;3.22;;;12.00;91.40;;;;;;5113260;28;20038;-74
2022/01/03 12:47:42;;;;;;;16.15;2.85;;;11.90;91.50;;;;;;5114569;28;20020;-76
2022/01/03 12:50:35;;;;;;;18.23;3.90;;;11.90;91.60;;;;;;5113633;28;20031;-75
2022/01/03 12:53:02;;;;;;;22.20;3.80;;;11.90;91.60;;;;;;5082970;28;20399;-76
2022/01/03 12:55:37;;;;;;;20.63;3.75;;;11.90;91.70;;;;;;5114756;28;20410;-75
2022/01/03 12:58:22;;;;;;;16.88;2.55;;;11.90;91.50;;;;;;5113359;28;20395;-78
2022/01/03 13:00:55;;;;;;;19.83;3.40;;;11.90;91.50;;;;;;5062403;28;20024;-75